sensor_id;sensor_type;location;lat;lon;timestamp;pressure;altitude;pressure_sealevel;temperature;humidity
23635;BME280;11994;51.038;16.974;2022-07-23T00:01:36;100152.23;;;22.50;56.57
23635;BME280;11994;51.038;16.974;2022-07-23T00:04:02;100162.36;;;22.52;56.87
23635;BME280;11994;51.038;16.974;2022-07-23T00:06:27;100166.23;;;22.54;57.12
23635;BME280;11994;51.038;16.974;2022-07-23T00:08:53;100166.32;;;22.47;57.23
23635;BME280;11994;51.038;16.974;2022-07-23T00:11:19;100163.75;;;22.45;57.40
23635;BME280;11994;51.038;16.974;2022-07-23T00:13:47;100170.23;;;22.48;57.54
23635;BME280;11994;51.038;16.974;2022-07-23T00:16:13;100164.27;;;22.50;57.48
23635;BME280;11994;51.038;16.974;2022-07-23T00:18:39;100165.61;;;22.50;57.51
23635;BME280;11994;51.038;16.974;2022-07-23T00:21:05;100164.77;;;22.50;57.47
23635;BME280;11994;51.038;16.974;2022-07-23T00:23:32;100163.55;;;22.48;57.47
23635;BME280;11994;51.038;16.974;2022-07-23T00:25:58;100156.70;;;22.44;57.53
23635;BME280;11994;51.038;16.974;2022-07-23T00:28:24;100166.27;;;22.41;57.60
23635;BME280;11994;51.038;16.974;2022-07-23T00:30:50;100169.59;;;22.32;57.62
23635;BME280;11994;51.038;16.974;2022-07-23T00:33:16;100172.64;;;22.21;57.72
23635;BME280;11994;51.038;16.974;2022-07-23T00:35:42;100167.62;;;22.16;57.91
23635;BME280;11994;51.038;16.974;2022-07-23T00:38:09;100172.24;;;22.14;58.10
23635;BME280;11994;51.038;16.974;2022-07-23T00:40:37;100176.45;;;22.11;58.24
23635;BME280;11994;51.038;16.974;2022-07-23T00:43:03;100187.75;;;22.09;58.43
23635;BME280;11994;51.038;16.974;2022-07-23T00:45:30;100173.65;;;22.07;58.52
23635;BME280;11994;51.038;16.974;2022-07-23T00:47:56;100174.75;;;22.10;58.65
23635;BME280;11994;51.038;16.974;2022-07-23T00:50:23;100170.84;;;22.09;58.42
23635;BME280;11994;51.038;16.974;2022-07-23T00:52:50;100158.98;;;22.00;58.48
23635;BME280;11994;51.038;16.974;2022-07-23T00:55:16;100168.64;;;21.90;58.57
23635;BME280;11994;51.038;16.974;2022-07-23T00:57:42;100169.44;;;21.85;58.71
23635;BME280;11994;51.038;16.974;2022-07-23T01:00:11;100162.12;;;21.82;58.77
23635;BME280;11994;51.038;16.974;2022-07-23T01:02:38;100163.81;;;21.70;58.71
23635;BME280;11994;51.038;16.974;2022-07-23T01:05:06;100154.05;;;21.57;58.90
23635;BME280;11994;51.038;16.974;2022-07-23T01:07:33;100154.05;;;21.44;59.09
23635;BME280;11994;51.038;16.974;2022-07-23T01:10:00;100158.84;;;21.39;59.19
23635;BME280;11994;51.038;16.974;2022-07-23T01:12:26;100158.86;;;21.32;59.45
23635;BME280;11994;51.038;16.974;2022-07-23T01:14:57;100161.94;;;21.33;59.64
23635;BME280;11994;51.038;16.974;2022-07-23T01:17:24;100162.23;;;21.29;59.85
23635;BME280;11994;51.038;16.974;2022-07-23T01:19:50;100171.15;;;21.22;59.97
23635;BME280;11994;51.038;16.974;2022-07-23T01:22:19;100173.27;;;21.17;60.28
23635;BME280;11994;51.038;16.974;2022-07-23T01:24:45;100171.44;;;21.18;60.29
23635;BME280;11994;51.038;16.974;2022-07-23T01:27:12;100168.34;;;21.11;60.38
23635;BME280;11994;51.038;16.974;2022-07-23T01:29:38;100161.58;;;21.06;60.65
23635;BME280;11994;51.038;16.974;2022-07-23T01:32:05;100173.13;;;21.06;60.86
23635;BME280;11994;51.038;16.974;2022-07-23T01:34:32;100164.38;;;21.04;60.83
23635;BME280;11994;51.038;16.974;2022-07-23T01:36:57;100162.64;;;21.03;61.17
23635;BME280;11994;51.038;16.974;2022-07-23T01:39:23;100166.45;;;21.06;61.25
23635;BME280;11994;51.038;16.974;2022-07-23T01:41:49;100159.41;;;21.05;61.39
23635;BME280;11994;51.038;16.974;2022-07-23T01:44:15;100159.09;;;21.10;61.48
23635;BME280;11994;51.038;16.974;2022-07-23T01:46:41;100158.13;;;21.11;61.54
23635;BME280;11994;51.038;16.974;2022-07-23T01:49:07;100163.65;;;21.15;61.57
23635;BME280;11994;51.038;16.974;2022-07-23T01:51:33;100166.23;;;21.16;61.59
23635;BME280;11994;51.038;16.974;2022-07-23T01:53:59;100161.25;;;21.17;61.55
23635;BME280;11994;51.038;16.974;2022-07-23T01:56:24;100152.89;;;21.09;61.48
23635;BME280;11994;51.038;16.974;2022-07-23T01:58:50;100155.69;;;21.01;61.62
23635;BME280;11994;51.038;16.974;2022-07-23T02:01:16;100155.83;;;20.92;61.64
23635;BME280;11994;51.038;16.974;2022-07-23T02:03:43;100146.21;;;20.90;61.82
23635;BME280;11994;51.038;16.974;2022-07-23T02:06:09;100143.83;;;20.85;61.73
23635;BME280;11994;51.038;16.974;2022-07-23T02:08:35;100129.47;;;20.81;61.90
23635;BME280;11994;51.038;16.974;2022-07-23T02:11:01;100139.89;;;20.71;61.96
23635;BME280;11994;51.038;16.974;2022-07-23T02:13:27;100135.33;;;20.66;62.09
23635;BME280;11994;51.038;16.974;2022-07-23T02:15:54;100130.30;;;20.55;62.20
23635;BME280;11994;51.038;16.974;2022-07-23T02:18:20;100134.98;;;20.51;62.41
23635;BME280;11994;51.038;16.974;2022-07-23T02:20:46;100134.03;;;20.52;62.61
23635;BME280;11994;51.038;16.974;2022-07-23T02:23:12;100136.97;;;20.55;62.74
23635;BME280;11994;51.038;16.974;2022-07-23T02:25:38;100144.41;;;20.57;62.68
23635;BME280;11994;51.038;16.974;2022-07-23T02:28:03;100135.64;;;20.55;62.85
23635;BME280;11994;51.038;16.974;2022-07-23T02:30:29;100149.28;;;20.50;62.96
23635;BME280;11994;51.038;16.974;2022-07-23T02:32:55;100140.54;;;20.48;63.03
23635;BME280;11994;51.038;16.974;2022-07-23T02:35:21;100140.04;;;20.49;63.21
23635;BME280;11994;51.038;16.974;2022-07-23T02:37:47;100130.30;;;20.55;63.38
23635;BME280;11994;51.038;16.974;2022-07-23T02:40:13;100127.17;;;20.55;63.27
23635;BME280;11994;51.038;16.974;2022-07-23T02:42:39;100135.73;;;20.60;63.37
23635;BME280;11994;51.038;16.974;2022-07-23T02:45:05;100120.84;;;20.63;63.34
23635;BME280;11994;51.038;16.974;2022-07-23T02:47:32;100115.33;;;20.66;63.26
23635;BME280;11994;51.038;16.974;2022-07-23T02:49:58;100119.80;;;20.66;63.23
23635;BME280;11994;51.038;16.974;2022-07-23T02:52:24;100118.65;;;20.70;63.24
23635;BME280;11994;51.038;16.974;2022-07-23T02:54:50;100117.22;;;20.71;63.17
23635;BME280;11994;51.038;16.974;2022-07-23T02:57:16;100118.19;;;20.70;63.16
23635;BME280;11994;51.038;16.974;2022-07-23T02:59:42;100120.57;;;20.68;63.29
23635;BME280;11994;51.038;16.974;2022-07-23T03:02:08;100121.91;;;20.68;63.36
23635;BME280;11994;51.038;16.974;2022-07-23T03:04:34;100119.33;;;20.66;63.44
23635;BME280;11994;51.038;16.974;2022-07-23T03:07:00;100125.91;;;20.68;63.53
23635;BME280;11994;51.038;16.974;2022-07-23T03:09:26;100128.85;;;20.70;63.58
23635;BME280;11994;51.038;16.974;2022-07-23T03:11:52;100135.70;;;20.67;63.56
23635;BME280;11994;51.038;16.974;2022-07-23T03:14:17;100139.33;;;20.66;63.87
23635;BME280;11994;51.038;16.974;2022-07-23T03:16:43;100139.70;;;20.67;63.76
23635;BME280;11994;51.038;16.974;2022-07-23T03:19:09;100133.44;;;20.61;63.80
23635;BME280;11994;51.038;16.974;2022-07-23T03:21:35;100131.55;;;20.56;63.90
23635;BME280;11994;51.038;16.974;2022-07-23T03:24:04;100132.70;;;20.59;64.07
23635;BME280;11994;51.038;16.974;2022-07-23T03:26:30;100128.29;;;20.58;64.19
23635;BME280;11994;51.038;16.974;2022-07-23T03:28:55;100122.03;;;20.59;64.31
23635;BME280;11994;51.038;16.974;2022-07-23T03:31:21;100129.06;;;20.60;64.36
23635;BME280;11994;51.038;16.974;2022-07-23T03:33:47;100127.33;;;20.66;64.43
23635;BME280;11994;51.038;16.974;2022-07-23T03:36:13;100136.73;;;20.72;64.36
23635;BME280;11994;51.038;16.974;2022-07-23T03:38:39;100138.34;;;20.74;64.41
23635;BME280;11994;51.038;16.974;2022-07-23T03:41:05;100138.52;;;20.78;64.38
23635;BME280;11994;51.038;16.974;2022-07-23T03:43:30;100140.32;;;20.78;64.31
23635;BME280;11994;51.038;16.974;2022-07-23T03:45:56;100136.32;;;20.78;64.54
23635;BME280;11994;51.038;16.974;2022-07-23T03:48:23;100132.81;;;20.77;64.55
23635;BME280;11994;51.038;16.974;2022-07-23T03:50:48;100133.19;;;20.78;64.63
23635;BME280;11994;51.038;16.974;2022-07-23T03:53:14;100136.81;;;20.77;64.80
23635;BME280;11994;51.038;16.974;2022-07-23T03:55:40;100134.89;;;20.79;64.93
23635;BME280;11994;51.038;16.974;2022-07-23T03:58:06;100143.55;;;20.83;64.98
23635;BME280;11994;51.038;16.974;2022-07-23T04:00:32;100144.78;;;20.84;64.92
23635;BME280;11994;51.038;16.974;2022-07-23T04:02:58;100144.97;;;20.81;64.94
23635;BME280;11994;51.038;16.974;2022-07-23T04:05:24;100141.94;;;20.80;64.94
23635;BME280;11994;51.038;16.974;2022-07-23T04:07:50;100140.73;;;20.79;64.99
23635;BME280;11994;51.038;16.974;2022-07-23T04:10:15;100139.77;;;20.80;65.01
23635;BME280;11994;51.038;16.974;2022-07-23T04:12:41;100128.72;;;20.79;65.03
23635;BME280;11994;51.038;16.974;2022-07-23T04:15:08;100126.42;;;20.80;65.11
23635;BME280;11994;51.038;16.974;2022-07-23T04:17:34;100126.70;;;20.82;65.21
23635;BME280;11994;51.038;16.974;2022-07-23T04:20:01;100120.41;;;20.83;65.20
23635;BME280;11994;51.038;16.974;2022-07-23T04:22:27;100117.52;;;20.86;65.26
23635;BME280;11994;51.038;16.974;2022-07-23T04:24:52;100115.25;;;20.87;65.27
23635;BME280;11994;51.038;16.974;2022-07-23T04:27:18;100113.14;;;20.85;65.31
23635;BME280;11994;51.038;16.974;2022-07-23T04:29:44;100106.57;;;20.84;65.31
23635;BME280;11994;51.038;16.974;2022-07-23T04:32:10;100105.92;;;20.80;65.37
23635;BME280;11994;51.038;16.974;2022-07-23T04:34:36;100104.03;;;20.75;65.38
23635;BME280;11994;51.038;16.974;2022-07-23T04:37:02;100104.16;;;20.67;65.60
23635;BME280;11994;51.038;16.974;2022-07-23T04:39:27;100101.50;;;20.67;65.88
23635;BME280;11994;51.038;16.974;2022-07-23T04:41:54;100091.88;;;20.71;66.05
23635;BME280;11994;51.038;16.974;2022-07-23T04:44:20;100087.47;;;20.77;66.10
23635;BME280;11994;51.038;16.974;2022-07-23T04:46:46;100086.38;;;20.87;66.11
23635;BME280;11994;51.038;16.974;2022-07-23T04:49:11;100089.40;;;20.95;66.08
23635;BME280;11994;51.038;16.974;2022-07-23T04:51:37;100092.33;;;21.04;66.02
23635;BME280;11994;51.038;16.974;2022-07-23T04:54:03;100077.37;;;21.14;66.08
23635;BME280;11994;51.038;16.974;2022-07-23T04:56:29;100072.48;;;21.21;66.05
23635;BME280;11994;51.038;16.974;2022-07-23T04:58:55;100069.42;;;21.32;66.27
23635;BME280;11994;51.038;16.974;2022-07-23T05:01:21;100068.00;;;21.46;66.28
23635;BME280;11994;51.038;16.974;2022-07-23T05:03:47;100056.09;;;21.57;66.16
23635;BME280;11994;51.038;16.974;2022-07-23T05:06:14;100047.27;;;21.62;66.08
23635;BME280;11994;51.038;16.974;2022-07-23T05:08:40;100051.05;;;21.65;65.97
23635;BME280;11994;51.038;16.974;2022-07-23T05:11:06;100048.57;;;21.69;65.99
23635;BME280;11994;51.038;16.974;2022-07-23T05:13:32;100046.06;;;21.73;66.00
23635;BME280;11994;51.038;16.974;2022-07-23T05:15:58;100042.42;;;21.74;66.00
23635;BME280;11994;51.038;16.974;2022-07-23T05:18:24;100044.49;;;21.76;65.98
23635;BME280;11994;51.038;16.974;2022-07-23T05:20:50;100037.00;;;21.81;65.91
23635;BME280;11994;51.038;16.974;2022-07-23T05:23:15;100039.97;;;21.89;65.91
23635;BME280;11994;51.038;16.974;2022-07-23T05:25:41;100034.94;;;21.97;65.90
23635;BME280;11994;51.038;16.974;2022-07-23T05:28:08;100031.21;;;22.05;65.66
23635;BME280;11994;51.038;16.974;2022-07-23T05:30:33;100034.20;;;22.13;65.43
23635;BME280;11994;51.038;16.974;2022-07-23T05:32:59;100029.59;;;22.21;65.16
23635;BME280;11994;51.038;16.974;2022-07-23T05:35:25;100026.50;;;22.27;64.91
23635;BME280;11994;51.038;16.974;2022-07-23T05:37:51;100018.12;;;22.31;64.70
23635;BME280;11994;51.038;16.974;2022-07-23T05:40:18;100022.41;;;22.39;64.54
23635;BME280;11994;51.038;16.974;2022-07-23T05:42:44;100012.69;;;22.38;64.21
23635;BME280;11994;51.038;16.974;2022-07-23T05:45:10;100015.62;;;22.41;64.09
23635;BME280;11994;51.038;16.974;2022-07-23T05:47:45;100012.27;;;22.44;63.93
23635;BME280;11994;51.038;16.974;2022-07-23T05:50:13;100010.20;;;22.48;63.93
23635;BME280;11994;51.038;16.974;2022-07-23T05:52:40;100013.28;;;22.54;64.04
23635;BME280;11994;51.038;16.974;2022-07-23T05:55:07;100014.89;;;22.62;64.01
23635;BME280;11994;51.038;16.974;2022-07-23T05:57:33;100016.27;;;22.68;63.88
23635;BME280;11994;51.038;16.974;2022-07-23T06:00:00;100018.69;;;22.71;63.76
23635;BME280;11994;51.038;16.974;2022-07-23T06:02:27;100012.51;;;22.76;63.59
23635;BME280;11994;51.038;16.974;2022-07-23T06:04:52;100016.16;;;22.80;63.42
23635;BME280;11994;51.038;16.974;2022-07-23T06:07:18;100020.57;;;22.87;63.27
23635;BME280;11994;51.038;16.974;2022-07-23T06:09:44;100019.27;;;22.92;63.19
23635;BME280;11994;51.038;16.974;2022-07-23T06:12:12;100027.44;;;23.02;62.92
23635;BME280;11994;51.038;16.974;2022-07-23T06:14:38;100030.22;;;23.06;62.80
23635;BME280;11994;51.038;16.974;2022-07-23T06:17:04;100031.81;;;23.08;62.61
23635;BME280;11994;51.038;16.974;2022-07-23T06:19:29;100028.05;;;23.11;62.44
23635;BME280;11994;51.038;16.974;2022-07-23T06:21:56;100032.67;;;23.14;62.28
23635;BME280;11994;51.038;16.974;2022-07-23T06:24:21;100031.76;;;23.21;62.17
23635;BME280;11994;51.038;16.974;2022-07-23T06:26:48;100027.98;;;23.23;61.86
23635;BME280;11994;51.038;16.974;2022-07-23T06:29:13;100027.88;;;23.30;61.85
23635;BME280;11994;51.038;16.974;2022-07-23T06:31:39;100021.56;;;23.37;61.71
23635;BME280;11994;51.038;16.974;2022-07-23T06:34:05;100019.63;;;23.44;61.55
23635;BME280;11994;51.038;16.974;2022-07-23T06:36:31;100019.25;;;23.49;61.45
23635;BME280;11994;51.038;16.974;2022-07-23T06:38:57;100009.74;;;23.56;61.37
23635;BME280;11994;51.038;16.974;2022-07-23T06:41:23;100006.93;;;23.63;61.36
23635;BME280;11994;51.038;16.974;2022-07-23T06:43:49;100001.34;;;23.66;61.26
23635;BME280;11994;51.038;16.974;2022-07-23T06:46:15;99999.51;;;23.72;61.23
23635;BME280;11994;51.038;16.974;2022-07-23T06:48:41;99993.17;;;23.78;61.01
23635;BME280;11994;51.038;16.974;2022-07-23T06:51:07;99985.98;;;23.84;60.91
23635;BME280;11994;51.038;16.974;2022-07-23T06:53:33;99982.56;;;23.93;60.90
23635;BME280;11994;51.038;16.974;2022-07-23T06:55:59;99980.48;;;24.02;60.84
23635;BME280;11994;51.038;16.974;2022-07-23T06:58:25;99981.68;;;24.15;60.71
23635;BME280;11994;51.038;16.974;2022-07-23T07:00:51;99986.89;;;24.22;60.45
23635;BME280;11994;51.038;16.974;2022-07-23T07:03:17;99982.75;;;24.23;60.29
23635;BME280;11994;51.038;16.974;2022-07-23T07:05:44;99992.84;;;24.25;60.29
23635;BME280;11994;51.038;16.974;2022-07-23T07:08:11;99991.00;;;24.31;60.42
23635;BME280;11994;51.038;16.974;2022-07-23T07:10:37;99991.83;;;24.37;60.45
23635;BME280;11994;51.038;16.974;2022-07-23T07:13:02;99988.52;;;24.39;60.21
23635;BME280;11994;51.038;16.974;2022-07-23T07:15:28;99994.39;;;24.39;60.35
23635;BME280;11994;51.038;16.974;2022-07-23T07:17:54;99997.55;;;24.44;60.22
23635;BME280;11994;51.038;16.974;2022-07-23T07:20:20;99994.36;;;24.44;59.88
23635;BME280;11994;51.038;16.974;2022-07-23T07:22:46;99989.86;;;24.45;59.84
23635;BME280;11994;51.038;16.974;2022-07-23T07:25:11;99991.43;;;24.47;59.86
23635;BME280;11994;51.038;16.974;2022-07-23T07:27:37;99989.22;;;24.52;59.95
23635;BME280;11994;51.038;16.974;2022-07-23T07:30:05;99985.42;;;24.60;59.63
23635;BME280;11994;51.038;16.974;2022-07-23T07:32:32;99979.18;;;24.65;59.70
23635;BME280;11994;51.038;16.974;2022-07-23T07:34:58;99982.91;;;24.74;59.63
23635;BME280;11994;51.038;16.974;2022-07-23T07:37:24;99975.68;;;24.80;59.45
23635;BME280;11994;51.038;16.974;2022-07-23T07:39:50;99969.66;;;24.87;59.43
23635;BME280;11994;51.038;16.974;2022-07-23T07:42:16;99969.59;;;24.98;59.36
23635;BME280;11994;51.038;16.974;2022-07-23T07:44:42;99958.61;;;25.11;59.24
23635;BME280;11994;51.038;16.974;2022-07-23T07:47:08;99967.11;;;25.21;59.34
23635;BME280;11994;51.038;16.974;2022-07-23T07:49:34;99970.09;;;25.33;59.00
23635;BME280;11994;51.038;16.974;2022-07-23T07:51:59;99962.36;;;25.40;58.80
23635;BME280;11994;51.038;16.974;2022-07-23T07:54:25;99962.52;;;25.48;58.74
23635;BME280;11994;51.038;16.974;2022-07-23T07:56:51;99965.78;;;25.51;58.03
23635;BME280;11994;51.038;16.974;2022-07-23T07:59:17;99963.67;;;25.55;58.01
23635;BME280;11994;51.038;16.974;2022-07-23T08:01:42;99962.68;;;25.56;57.54
23635;BME280;11994;51.038;16.974;2022-07-23T08:04:08;99961.94;;;25.59;57.59
23635;BME280;11994;51.038;16.974;2022-07-23T08:06:34;99954.58;;;25.61;56.94
23635;BME280;11994;51.038;16.974;2022-07-23T08:09:00;99956.15;;;25.64;57.14
23635;BME280;11994;51.038;16.974;2022-07-23T08:11:26;99952.69;;;25.67;57.29
23635;BME280;11994;51.038;16.974;2022-07-23T08:13:51;99961.07;;;25.74;57.10
23635;BME280;11994;51.038;16.974;2022-07-23T08:16:17;99964.94;;;25.75;57.08
23635;BME280;11994;51.038;16.974;2022-07-23T08:18:43;99968.20;;;25.79;57.15
23635;BME280;11994;51.038;16.974;2022-07-23T08:21:09;99966.52;;;25.87;57.16
23635;BME280;11994;51.038;16.974;2022-07-23T08:23:35;99967.73;;;25.94;57.03
23635;BME280;11994;51.038;16.974;2022-07-23T08:26:01;99963.14;;;26.00;56.68
23635;BME280;11994;51.038;16.974;2022-07-23T08:28:27;99972.70;;;26.08;56.79
23635;BME280;11994;51.038;16.974;2022-07-23T08:30:53;99970.75;;;26.20;56.66
23635;BME280;11994;51.038;16.974;2022-07-23T08:33:19;99975.57;;;26.26;56.58
23635;BME280;11994;51.038;16.974;2022-07-23T08:35:51;99963.46;;;26.35;56.57
23635;BME280;11994;51.038;16.974;2022-07-23T08:38:17;99962.76;;;26.43;55.99
23635;BME280;11994;51.038;16.974;2022-07-23T08:40:50;99958.77;;;26.47;56.05
23635;BME280;11994;51.038;16.974;2022-07-23T08:43:22;99955.83;;;26.59;55.44
23635;BME280;11994;51.038;16.974;2022-07-23T08:45:51;99946.48;;;26.63;55.30
23635;BME280;11994;51.038;16.974;2022-07-23T08:48:20;99946.33;;;26.74;55.41
23635;BME280;11994;51.038;16.974;2022-07-23T08:50:50;99947.87;;;26.86;55.17
23635;BME280;11994;51.038;16.974;2022-07-23T08:53:21;99943.35;;;27.00;55.14
23635;BME280;11994;51.038;16.974;2022-07-23T08:55:48;99940.14;;;27.10;54.81
23635;BME280;11994;51.038;16.974;2022-07-23T08:58:17;99944.70;;;27.19;54.48
23635;BME280;11994;51.038;16.974;2022-07-23T09:00:44;99943.77;;;27.24;54.21
23635;BME280;11994;51.038;16.974;2022-07-23T09:03:20;99947.56;;;27.31;54.15
23635;BME280;11994;51.038;16.974;2022-07-23T09:05:49;99942.61;;;27.40;53.78
23635;BME280;11994;51.038;16.974;2022-07-23T09:08:22;99943.83;;;27.55;53.46
23635;BME280;11994;51.038;16.974;2022-07-23T09:13:47;99932.24;;;27.72;53.22
23635;BME280;11994;51.038;16.974;2022-07-23T09:16:26;99936.78;;;27.81;53.03
23635;BME280;11994;51.038;16.974;2022-07-23T09:19:02;99937.20;;;27.90;52.73
23635;BME280;11994;51.038;16.974;2022-07-23T09:21:28;99937.47;;;28.01;52.88
23635;BME280;11994;51.038;16.974;2022-07-23T09:26:37;99937.83;;;28.15;52.08
23635;BME280;11994;51.038;16.974;2022-07-23T09:32:01;99937.57;;;28.26;52.40
23635;BME280;11994;51.038;16.974;2022-07-23T09:34:33;99932.75;;;28.34;52.00
23635;BME280;11994;51.038;16.974;2022-07-23T09:39:43;99928.65;;;28.43;51.94
23635;BME280;11994;51.038;16.974;2022-07-23T09:42:19;99928.89;;;28.50;51.82
23635;BME280;11994;51.038;16.974;2022-07-23T09:44:48;99930.96;;;28.56;51.71
23635;BME280;11994;51.038;16.974;2022-07-23T09:47:17;99933.91;;;28.62;51.18
23635;BME280;11994;51.038;16.974;2022-07-23T09:49:57;99932.56;;;28.66;51.30
23635;BME280;11994;51.038;16.974;2022-07-23T09:52:31;99936.70;;;28.74;51.41
23635;BME280;11994;51.038;16.974;2022-07-23T09:55:00;99939.63;;;28.81;51.68
23635;BME280;11994;51.038;16.974;2022-07-23T09:57:28;99940.80;;;28.82;51.85
23635;BME280;11994;51.038;16.974;2022-07-23T09:59:57;99949.58;;;28.80;51.22
23635;BME280;11994;51.038;16.974;2022-07-23T10:02:26;99953.14;;;28.81;51.46
23635;BME280;11994;51.038;16.974;2022-07-23T10:04:54;99955.66;;;28.78;51.06
23635;BME280;11994;51.038;16.974;2022-07-23T10:07:23;99956.82;;;28.80;50.70
23635;BME280;11994;51.038;16.974;2022-07-23T10:09:52;99962.94;;;28.82;50.48
23635;BME280;11994;51.038;16.974;2022-07-23T10:12:20;99961.79;;;28.67;49.85
23635;BME280;11994;51.038;16.974;2022-07-23T10:14:46;99969.78;;;28.37;49.94
23635;BME280;11994;51.038;16.974;2022-07-23T10:17:13;99964.43;;;28.10;50.25
23635;BME280;11994;51.038;16.974;2022-07-23T10:19:40;99970.47;;;27.95;50.62
23635;BME280;11994;51.038;16.974;2022-07-23T10:22:12;99976.33;;;27.90;50.85
23635;BME280;11994;51.038;16.974;2022-07-23T10:31:07;99985.23;;;27.27;51.64
23635;BME280;11994;51.038;16.974;2022-07-23T10:33:53;99990.58;;;27.04;52.46
23635;BME280;11994;51.038;16.974;2022-07-23T10:39:12;99998.12;;;26.63;53.61
23635;BME280;11994;51.038;16.974;2022-07-23T10:41:47;100018.94;;;26.51;54.59
23635;BME280;11994;51.038;16.974;2022-07-23T10:44:16;100025.37;;;26.35;56.08
23635;BME280;11994;51.038;16.974;2022-07-23T10:46:59;100038.38;;;26.21;57.23
23635;BME280;11994;51.038;16.974;2022-07-23T10:49:31;100049.67;;;26.05;58.29
23635;BME280;11994;51.038;16.974;2022-07-23T10:52:21;100060.30;;;25.86;59.52
23635;BME280;11994;51.038;16.974;2022-07-23T10:54:52;100062.03;;;25.72;60.60
23635;BME280;11994;51.038;16.974;2022-07-23T10:57:26;100068.63;;;25.53;61.63
23635;BME280;11994;51.038;16.974;2022-07-23T11:02:42;100074.27;;;25.35;63.48
23635;BME280;11994;51.038;16.974;2022-07-23T11:05:23;100065.78;;;25.25;63.88
23635;BME280;11994;51.038;16.974;2022-07-23T11:10:42;100072.12;;;25.03;64.94
23635;BME280;11994;51.038;16.974;2022-07-23T11:16:05;100050.37;;;24.80;65.97
23635;BME280;11994;51.038;16.974;2022-07-23T11:24:09;100017.23;;;24.65;67.30
23635;BME280;11994;51.038;16.974;2022-07-23T11:26:57;100005.20;;;24.48;67.45
23635;BME280;11994;51.038;16.974;2022-07-23T11:32:07;99994.55;;;24.26;68.24
23635;BME280;11994;51.038;16.974;2022-07-23T11:34:44;99987.48;;;24.20;68.69
23635;BME280;11994;51.038;16.974;2022-07-23T11:37:41;99980.78;;;24.25;69.37
23635;BME280;11994;51.038;16.974;2022-07-23T11:40:11;99976.72;;;24.31;69.68
23635;BME280;11994;51.038;16.974;2022-07-23T11:42:50;99981.14;;;24.26;69.53
23635;BME280;11994;51.038;16.974;2022-07-23T11:45:22;99997.89;;;24.13;69.73
23635;BME280;11994;51.038;16.974;2022-07-23T11:47:50;99982.06;;;24.05;70.32
23635;BME280;11994;51.038;16.974;2022-07-23T11:50:16;99987.91;;;24.04;70.68
23635;BME280;11994;51.038;16.974;2022-07-23T11:52:42;99989.12;;;24.06;71.03
23635;BME280;11994;51.038;16.974;2022-07-23T11:55:10;99990.11;;;23.99;71.05
23635;BME280;11994;51.038;16.974;2022-07-23T11:57:39;99990.86;;;24.01;71.05
23635;BME280;11994;51.038;16.974;2022-07-23T12:00:17;99984.23;;;24.05;71.26
23635;BME280;11994;51.038;16.974;2022-07-23T12:02:48;99977.92;;;24.06;71.27
23635;BME280;11994;51.038;16.974;2022-07-23T12:05:21;99970.00;;;24.05;71.17
23635;BME280;11994;51.038;16.974;2022-07-23T12:07:51;99967.55;;;24.07;71.32
23635;BME280;11994;51.038;16.974;2022-07-23T12:10:24;99963.17;;;24.06;71.19
23635;BME280;11994;51.038;16.974;2022-07-23T12:13:04;99963.50;;;24.13;71.55
23635;BME280;11994;51.038;16.974;2022-07-23T12:15:35;99968.23;;;24.20;71.46
23635;BME280;11994;51.038;16.974;2022-07-23T12:18:05;99974.43;;;24.26;71.22
23635;BME280;11994;51.038;16.974;2022-07-23T12:20:39;99979.75;;;24.43;71.73
23635;BME280;11994;51.038;16.974;2022-07-23T12:23:09;99980.41;;;24.61;72.51
23635;BME280;11994;51.038;16.974;2022-07-23T12:25:39;99992.27;;;24.79;72.89
23635;BME280;11994;51.038;16.974;2022-07-23T12:30:50;99986.82;;;24.96;73.03
23635;BME280;11994;51.038;16.974;2022-07-23T12:33:35;99988.09;;;25.07;73.21
23635;BME280;11994;51.038;16.974;2022-07-23T12:36:07;99975.06;;;25.17;73.18
23635;BME280;11994;51.038;16.974;2022-07-23T12:38:43;99973.77;;;25.32;73.60
23635;BME280;11994;51.038;16.974;2022-07-23T12:41:11;99963.99;;;25.46;73.37
23635;BME280;11994;51.038;16.974;2022-07-23T12:43:39;99960.73;;;25.58;72.87
23635;BME280;11994;51.038;16.974;2022-07-23T12:48:51;99956.32;;;25.81;72.36
23635;BME280;11994;51.038;16.974;2022-07-23T12:51:20;99963.13;;;25.91;72.32
23635;BME280;11994;51.038;16.974;2022-07-23T12:53:53;99964.75;;;25.97;71.82
23635;BME280;11994;51.038;16.974;2022-07-23T12:56:27;99960.11;;;26.09;71.98
23635;BME280;11994;51.038;16.974;2022-07-23T13:01:42;99955.78;;;26.21;70.66
23635;BME280;11994;51.038;16.974;2022-07-23T13:04:12;99952.75;;;26.20;69.58
23635;BME280;11994;51.038;16.974;2022-07-23T13:06:43;99957.52;;;26.22;69.73
23635;BME280;11994;51.038;16.974;2022-07-23T13:09:14;99963.81;;;26.36;69.71
23635;BME280;11994;51.038;16.974;2022-07-23T13:11:41;99955.02;;;26.53;68.61
23635;BME280;11994;51.038;16.974;2022-07-23T13:14:07;99958.65;;;26.67;67.34
23635;BME280;11994;51.038;16.974;2022-07-23T13:16:33;99952.70;;;26.83;67.01
23635;BME280;11994;51.038;16.974;2022-07-23T13:19:00;99963.14;;;26.95;66.11
23635;BME280;11994;51.038;16.974;2022-07-23T13:21:29;99966.81;;;27.04;65.17
23635;BME280;11994;51.038;16.974;2022-07-23T13:23:56;99957.21;;;27.15;64.60
23635;BME280;11994;51.038;16.974;2022-07-23T13:26:22;99954.92;;;27.29;63.96
23635;BME280;11994;51.038;16.974;2022-07-23T13:28:49;99957.75;;;27.37;63.23
23635;BME280;11994;51.038;16.974;2022-07-23T13:31:16;99962.44;;;27.49;62.89
23635;BME280;11994;51.038;16.974;2022-07-23T13:33:42;99965.20;;;27.53;62.56